Time;durP1;ratioP1;P1;durP2;ratioP2;P2;SDS_P1;SDS_P2;PMS_P1;PMS_P2;Temp;Humidity;BMP_temperature;BMP_pressure;BME280_temperature;BME280_humidity;BME280_pressure;Samples;Min_cycle;Max_cycle;Signal;HPM_P1;HPM_P2
2023/08/20 00:01:47;;;;;;;4.53;2.53;;;30.10;28.50;;;;;;20917703;28;20049;-57
2023/08/20 00:11:48;;;;;;;6.25;3.17;;;30.00;28.70;;;;;;20917028;28;20075;-57
2023/08/20 00:21:48;;;;;;;6.75;2.58;;;29.90;28.80;;;;;;20915159;28;20080;-56
2023/08/20 00:31:49;;;;;;;9.70;3.28;;;29.90;28.90;;;;;;20914802;28;20512;-56
2023/08/20 00:41:50;;;;;;;8.38;4.25;;;29.50;29.40;;;;;;20914840;28;20045;-56
2023/08/20 00:51:51;;;;;;;11.60;4.72;;;29.50;29.40;;;;;;20914369;28;20129;-56
2023/08/20 01:01:52;;;;;;;10.80;3.90;;;29.30;29.90;;;;;;20912662;28;20060;-55
2023/08/20 01:11:58;;;;;;;6.50;2.55;;;29.10;30.80;;;;;;20912204;28;20387;-56
2023/08/20 01:22:36;;;;;;;13.32;4.57;;;29.00;30.50;;;;;;20912914;28;20095;-56
2023/08/20 01:32:42;;;;;;;11.93;6.97;;;29.00;30.40;;;;;;20913046;28;20438;-56
2023/08/20 01:42:43;;;;;;;6.22;2.63;;;28.90;31.70;;;;;;20912128;28;20049;-57
2023/08/20 01:52:43;;;;;;;6.93;2.92;;;28.50;31.60;;;;;;20910710;28;20098;-56
2023/08/20 02:02:44;;;;;;;6.82;2.33;;;28.30;31.40;;;;;;20910033;28;20410;-56
2023/08/20 02:12:45;;;;;;;;;;;28.10;31.90;;;;;;20912172;28;20111;-57
2023/08/20 02:22:46;;;;;;;6.17;2.23;;;27.70;32.70;;;;;;20922192;28;19921;-56
2023/08/20 02:32:46;;;;;;;;;;;27.50;33.70;;;;;;20924302;28;20466;-56
2023/08/20 02:42:47;;;;;;;8.63;3.00;;;27.20;33.40;;;;;;20924453;28;20008;-55
2023/08/20 02:52:49;;;;;;;6.65;2.50;;;27.20;33.10;;;;;;20923309;28;20339;-56
2023/08/20 03:02:50;;;;;;;5.27;2.60;;;26.90;33.40;;;;;;20920835;28;20156;-55
2023/08/20 03:12:50;;;;;;;6.97;2.77;;;26.70;33.80;;;;;;20919977;28;20479;-56
2023/08/20 03:22:51;;;;;;;10.90;3.00;;;26.50;34.40;;;;;;20920510;28;20060;-56
2023/08/20 03:32:52;;;;;;;4.97;2.63;;;26.40;34.20;;;;;;20919087;28;20049;-56
2023/08/20 03:42:53;;;;;;;5.77;2.83;;;26.40;34.30;;;;;;20919420;28;20044;-56
2023/08/20 03:52:53;;;;;;;5.73;3.20;;;26.10;34.80;;;;;;20918504;28;20044;-56
2023/08/20 04:02:54;;;;;;;6.20;3.10;;;26.20;34.50;;;;;;20917984;28;20049;-56
2023/08/20 04:12:55;;;;;;;6.47;2.13;;;26.20;34.50;;;;;;20917117;28;20403;-56
2023/08/20 04:22:56;;;;;;;9.97;2.80;;;26.00;35.00;;;;;;20915379;28;20124;-56
2023/08/20 04:32:57;;;;;;;7.03;2.40;;;25.80;35.40;;;;;;20914836;28;20498;-56
2023/08/20 04:42:57;;;;;;;9.10;2.70;;;25.70;35.60;;;;;;20914910;28;20048;-56
2023/08/20 04:53:01;;;;;;;6.80;3.00;;;25.70;35.60;;;;;;20914828;28;20044;-56
2023/08/20 05:03:02;;;;;;;4.63;2.20;;;25.90;35.60;;;;;;20914010;28;20044;-56
2023/08/20 05:13:03;;;;;;;9.50;3.10;;;25.90;35.70;;;;;;20913482;28;20040;-56
2023/08/20 05:23:05;;;;;;;9.00;3.10;;;25.70;35.80;;;;;;20913300;28;20037;-55
2023/08/20 05:33:06;;;;;;;7.10;2.60;;;25.50;36.20;;;;;;20911498;28;20419;-56
2023/08/20 05:43:07;;;;;;;5.77;2.70;;;25.40;36.60;;;;;;20912056;28;20055;-55
2023/08/20 05:53:08;;;;;;;5.30;2.57;;;25.30;36.30;;;;;;20917956;28;20069;-56
2023/08/20 06:03:08;;;;;;;7.37;2.30;;;25.20;36.80;;;;;;20926318;28;20456;-56
2023/08/20 06:13:09;;;;;;;5.17;2.90;;;25.20;36.70;;;;;;20925414;28;20049;-56
2023/08/20 06:23:10;;;;;;;6.23;2.93;;;25.20;36.50;;;;;;20925165;28;20478;-56
2023/08/20 06:33:11;;;;;;;9.70;4.73;;;25.20;36.50;;;;;;20923777;28;20080;-56
2023/08/20 06:43:12;;;;;;;7.10;3.30;;;25.20;36.90;;;;;;20924257;28;20048;-55
2023/08/20 06:53:13;;;;;;;8.17;4.03;;;25.50;36.10;;;;;;20923398;28;20088;-55
2023/08/20 07:03:13;;;;;;;4.50;2.60;;;25.60;36.00;;;;;;20922626;28;20128;-55
2023/08/20 07:13:14;;;;;;;7.13;2.60;;;25.90;35.80;;;;;;20920483;28;20052;-56
2023/08/20 07:23:15;;;;;;;5.97;2.87;;;26.50;35.50;;;;;;20920916;28;20052;-56
2023/08/20 07:33:16;;;;;;;5.47;2.70;;;27.20;33.90;;;;;;20919294;28;20064;-56
2023/08/20 07:43:16;;;;;;;5.70;2.30;;;27.90;32.40;;;;;;20918079;28;20120;-56
2023/08/20 07:53:17;;;;;;;;;;;28.40;31.10;;;;;;20917664;28;20513;-56
2023/08/20 08:03:18;;;;;;;8.76;2.84;;;28.90;30.80;;;;;;20917744;28;19943;-57
2023/08/20 08:13:21;;;;;;;7.60;2.60;;;29.20;31.00;;;;;;20916374;28;20049;-55
2023/08/20 08:23:22;;;;;;;9.93;2.85;;;29.50;30.40;;;;;;20916513;28;20120;-55
2023/08/20 08:33:23;;;;;;;6.50;2.70;;;29.60;29.70;;;;;;20914340;28;20084;-56
2023/08/20 08:43:25;;;;;;;12.32;2.85;;;29.80;30.10;;;;;;20912559;28;20093;-57
2023/08/20 08:53:26;;;;;;;9.60;2.80;;;30.10;29.20;;;;;;20912705;28;20044;-55
2023/08/20 09:03:27;;;;;;;8.60;2.60;;;30.20;28.90;;;;;;20913242;28;20525;-55
2023/08/20 09:13:38;;;;;;;5.18;2.42;;;30.40;28.80;;;;;;20912899;28;20048;-57
2023/08/20 09:23:39;;;;;;;11.02;2.53;;;30.70;28.40;;;;;;20912539;28;20079;-57
2023/08/20 09:33:52;;;;;;;4.22;2.75;;;31.00;28.30;;;;;;20926493;28;20395;-56
2023/08/20 09:43:57;;;;;;;10.27;2.53;;;31.20;27.60;;;;;;20928138;28;20489;-56
2023/08/20 09:54:17;;;;;;;10.10;2.75;;;31.30;27.50;;;;;;20927360;28;20432;-58
2023/08/20 10:04:18;;;;;;;;;;;31.40;27.30;;;;;;20927134;28;20068;-56
2023/08/20 10:14:19;;;;;;;7.55;3.13;;;31.60;26.90;;;;;;20924006;28;19991;-57
2023/08/20 10:24:23;;;;;;;5.78;2.40;;;31.90;26.80;;;;;;20923633;28;20219;-58
2023/08/20 10:34:35;;;;;;;8.10;3.20;;;32.10;26.70;;;;;;20925020;28;20123;-57
2023/08/20 10:45:00;;;;;;;6.25;2.80;;;32.40;26.10;;;;;;20922231;28;20041;-57
2023/08/20 10:55:03;;;;;;;8.32;2.40;;;32.40;26.10;;;;;;20923183;28;20073;-57
2023/08/20 11:05:15;;;;;;;6.43;3.65;;;32.60;25.90;;;;;;20922436;28;20138;-57
2023/08/20 11:15:16;;;;;;;7.80;2.55;;;33.00;25.80;;;;;;20920528;28;20044;-57
2023/08/20 11:25:17;;;;;;;8.27;2.05;;;33.10;25.40;;;;;;20920710;28;20547;-55
2023/08/20 11:35:17;;;;;;;3.60;1.90;;;33.40;24.60;;;;;;20918802;28;20053;-56
2023/08/20 11:45:18;;;;;;;7.82;2.47;;;33.60;24.60;;;;;;20918343;28;20048;-57
2023/08/20 11:55:23;;;;;;;6.32;2.80;;;33.90;24.60;;;;;;20917950;28;20521;-57
2023/08/20 12:05:28;;;;;;;6.78;4.35;;;34.10;24.30;;;;;;20917336;28;20041;-57
2023/08/20 12:15:29;;;;;;;8.40;1.80;;;34.50;23.90;;;;;;20916725;28;20123;-57
2023/08/20 12:25:33;;;;;;;5.22;1.77;;;34.50;23.80;;;;;;20914065;28;20055;-57
2023/08/20 12:35:34;;;;;;;6.10;2.30;;;34.70;22.90;;;;;;20915756;28;20207;-56
2023/08/20 12:45:35;;;;;;;3.70;1.40;;;34.90;22.60;;;;;;20914115;28;20085;-57
2023/08/20 12:55:35;;;;;;;5.90;3.80;;;35.20;21.90;;;;;;20913605;28;20052;-56
2023/08/20 13:05:36;;;;;;;4.75;1.73;;;35.40;21.30;;;;;;20912488;28;20402;-57
2023/08/20 13:15:38;;;;;;;4.80;1.67;;;35.80;20.30;;;;;;20913110;28;20053;-57
2023/08/20 13:25:38;;;;;;;7.03;1.90;;;35.60;20.50;;;;;;20912562;28;20049;-58
2023/08/20 13:35:41;;;;;;;5.00;1.23;;;35.70;20.30;;;;;;20910993;28;20063;-57
2023/08/20 13:45:41;;;;;;;4.13;2.38;;;36.10;19.30;;;;;;20911707;28;20041;-57
2023/08/20 13:55:42;;;;;;;3.10;1.27;;;36.30;17.90;;;;;;20910435;28;20041;-56
2023/08/20 14:05:45;;;;;;;3.75;1.67;;;36.10;18.20;;;;;;20909829;28;20294;-58
2023/08/20 14:15:46;;;;;;;2.72;1.20;;;36.40;17.50;;;;;;20919330;28;20052;-58
2023/08/20 14:25:47;;;;;;;3.63;1.33;;;36.60;17.40;;;;;;20925730;28;20047;-57
2023/08/20 14:35:47;;;;;;;1.73;1.00;;;36.50;17.10;;;;;;20923669;28;20089;-57
2023/08/20 14:45:48;;;;;;;2.03;0.98;;;36.40;17.30;;;;;;20924246;28;20068;-57
2023/08/20 14:55:49;;;;;;;2.37;1.07;;;36.40;17.50;;;;;;20924001;28;20051;-57
2023/08/20 15:05:50;;;;;;;3.03;1.30;;;36.50;16.80;;;;;;20923128;28;20613;-58
2023/08/20 15:15:52;;;;;;;1.70;1.10;;;36.80;16.70;;;;;;20921989;28;20087;-57
2023/08/20 15:25:54;;;;;;;2.35;1.35;;;36.80;16.50;;;;;;20921499;28;20120;-56
2023/08/20 15:35:55;;;;;;;2.05;1.30;;;37.10;16.40;;;;;;20921324;28;20510;-56
2023/08/20 15:45:56;;;;;;;2.33;0.95;;;37.10;16.20;;;;;;20919970;28;20076;-57
2023/08/20 15:55:56;;;;;;;1.77;0.90;;;37.10;16.00;;;;;;20917576;28;20051;-57
2023/08/20 16:06:01;;;;;;;3.40;1.88;;;36.90;16.20;;;;;;20918229;28;20506;-58
2023/08/20 16:16:01;;;;;;;1.90;0.77;;;36.90;16.40;;;;;;20916334;28;20070;-58
2023/08/20 16:26:03;;;;;;;3.10;0.70;;;36.90;16.40;;;;;;20915511;28;20052;-57
2023/08/20 16:36:04;;;;;;;2.05;1.00;;;36.80;16.40;;;;;;20913979;28;20095;-57
2023/08/20 16:46:04;;;;;;;0.88;0.60;;;36.70;16.30;;;;;;20914995;28;20049;-57
2023/08/20 16:56:05;;;;;;;2.53;1.30;;;36.80;16.50;;;;;;20914144;28;20125;-57
2023/08/20 17:06:06;;;;;;;2.30;0.90;;;36.60;16.90;;;;;;20913454;28;20055;-56
2023/08/20 17:16:07;;;;;;;1.80;1.00;;;36.60;17.10;;;;;;20913081;28;20049;-56
2023/08/20 17:26:08;;;;;;;1.52;1.00;;;36.60;17.50;;;;;;20911132;28;20531;-56
2023/08/20 17:36:09;;;;;;;1.63;0.82;;;36.40;17.50;;;;;;20910859;28;20508;-56
2023/08/20 17:46:11;;;;;;;1.13;0.60;;;36.30;17.40;;;;;;20911888;28;20037;-56
2023/08/20 17:56:11;;;;;;;3.65;1.27;;;36.20;17.30;;;;;;20928265;28;20045;-55
2023/08/20 18:06:12;;;;;;;6.68;1.80;;;36.10;17.70;;;;;;20927349;28;20394;-56
2023/08/20 18:16:13;;;;;;;1.88;1.30;;;36.10;17.80;;;;;;20926478;28;20048;-57
2023/08/20 18:26:14;;;;;;;5.40;2.22;;;35.80;18.50;;;;;;20925680;28;20124;-56
2023/08/20 18:36:15;;;;;;;4.18;1.50;;;35.60;18.60;;;;;;20923514;28;20501;-57
2023/08/20 18:46:16;;;;;;;4.32;1.35;;;35.40;18.60;;;;;;20924293;28;20121;-56
2023/08/20 18:56:16;;;;;;;3.03;1.90;;;35.10;18.60;;;;;;20922140;28;20084;-57
2023/08/20 19:06:17;;;;;;;2.85;1.75;;;34.80;18.70;;;;;;20920846;28;20486;-57
2023/08/20 19:16:18;;;;;;;3.67;2.20;;;34.60;18.90;;;;;;20921799;28;20390;-56
2023/08/20 19:26:19;;;;;;;4.25;2.42;;;34.40;19.10;;;;;;20920912;28;20183;-57
2023/08/20 19:36:19;;;;;;;4.75;2.65;;;34.10;19.40;;;;;;20918525;28;20065;-57
2023/08/20 19:46:20;;;;;;;6.65;3.35;;;33.90;19.90;;;;;;20919338;28;20048;-56
2023/08/20 19:56:21;;;;;;;8.23;3.80;;;33.50;20.40;;;;;;20918522;28;20052;-56
2023/08/20 20:06:25;;;;;;;10.48;4.57;;;33.30;20.70;;;;;;20917614;28;20136;-57
2023/08/20 20:16:26;;;;;;;5.38;3.47;;;33.30;21.30;;;;;;20916200;28;20037;-55
2023/08/20 20:26:27;;;;;;;5.00;3.13;;;33.20;21.40;;;;;;20916662;28;20052;-56
2023/08/20 20:36:28;;;;;;;9.65;4.70;;;33.10;21.60;;;;;;20914218;28;20055;-55
2023/08/20 20:46:28;;;;;;;10.40;5.10;;;33.00;21.70;;;;;;20913195;28;20109;-56
2023/08/20 20:56:29;;;;;;;10.13;4.75;;;32.60;23.00;;;;;;20913980;28;20112;-56
2023/08/20 21:06:30;;;;;;;7.60;4.53;;;32.40;22.80;;;;;;20913199;28;20105;-56
2023/08/20 21:16:31;;;;;;;7.03;4.05;;;32.30;23.40;;;;;;20913133;28;20037;-58
2023/08/20 21:26:32;;;;;;;8.18;3.55;;;32.00;23.70;;;;;;20912311;28;20045;-58
2023/08/20 21:36:32;;;;;;;7.47;3.10;;;31.90;23.20;;;;;;20913194;28;20057;-57
2023/08/20 21:46:34;;;;;;;5.85;2.47;;;31.80;23.40;;;;;;20911832;28;20471;-57
2023/08/20 21:56:34;;;;;;;4.53;2.20;;;31.50;23.90;;;;;;20911773;28;20534;-55
2023/08/20 22:06:35;;;;;;;6.35;3.15;;;31.10;23.60;;;;;;20910801;28;20154;-58
2023/08/20 22:16:36;;;;;;;6.72;3.05;;;31.00;23.90;;;;;;20910205;28;20095;-56
2023/08/20 22:26:37;;;;;;;9.15;2.78;;;30.90;24.00;;;;;;20910032;28;20182;-59
2023/08/20 22:36:37;;;;;;;5.80;2.80;;;30.80;23.90;;;;;;20916415;28;20064;-56
2023/08/20 22:46:38;;;;;;;6.35;3.50;;;30.70;24.30;;;;;;20924424;28;20499;-58
2023/08/20 22:56:39;;;;;;;6.25;3.30;;;30.60;24.50;;;;;;20923395;28;20044;-56
2023/08/20 23:06:40;;;;;;;7.97;3.08;;;30.60;24.90;;;;;;20922748;28;20052;-57
2023/08/20 23:16:41;;;;;;;7.00;3.80;;;30.30;25.20;;;;;;20922256;28;20072;-56
2023/08/20 23:26:42;;;;;;;4.85;2.25;;;30.10;25.40;;;;;;20920820;28;20048;-56
2023/08/20 23:36:42;;;;;;;5.00;2.55;;;30.00;25.10;;;;;;20921284;28;20053;-56
2023/08/20 23:46:44;;;;;;;4.38;2.35;;;30.00;25.00;;;;;;20918599;28;20131;-55
2023/08/20 23:56:45;;;;;;;7.43;3.17;;;30.00;24.90;;;;;;20918733;28;20037;-58
